sensor_id;sensor_type;location;lat;lon;timestamp;temperature;humidity
46139;DHT22;32398;49.112;8.598;2022-08-19T00:01:48;24.10;59.20
46139;DHT22;32398;49.112;8.598;2022-08-19T00:04:15;24.10;59.20
46139;DHT22;32398;49.112;8.598;2022-08-19T00:06:43;24.10;59.20
46139;DHT22;32398;49.112;8.598;2022-08-19T00:09:12;24.00;59.20
46139;DHT22;32398;49.112;8.598;2022-08-19T00:11:39;24.00;59.30
46139;DHT22;32398;49.112;8.598;2022-08-19T00:14:07;24.00;59.30
46139;DHT22;32398;49.112;8.598;2022-08-19T00:16:34;24.00;59.30
46139;DHT22;32398;49.112;8.598;2022-08-19T00:19:01;24.00;59.30
46139;DHT22;32398;49.112;8.598;2022-08-19T00:21:28;24.00;59.30
46139;DHT22;32398;49.112;8.598;2022-08-19T00:23:55;24.00;59.30
46139;DHT22;32398;49.112;8.598;2022-08-19T00:26:24;24.00;59.40
46139;DHT22;32398;49.112;8.598;2022-08-19T00:28:51;24.00;59.40
46139;DHT22;32398;49.112;8.598;2022-08-19T00:31:17;24.00;59.40
46139;DHT22;32398;49.112;8.598;2022-08-19T00:33:44;24.00;59.50
46139;DHT22;32398;49.112;8.598;2022-08-19T00:36:11;23.90;59.30
46139;DHT22;32398;49.112;8.598;2022-08-19T00:38:38;23.90;59.40
46139;DHT22;32398;49.112;8.598;2022-08-19T00:41:09;23.90;59.40
46139;DHT22;32398;49.112;8.598;2022-08-19T00:43:37;23.90;59.50
46139;DHT22;32398;49.112;8.598;2022-08-19T00:46:04;23.80;59.50
46139;DHT22;32398;49.112;8.598;2022-08-19T00:48:30;23.90;59.50
46139;DHT22;32398;49.112;8.598;2022-08-19T00:50:58;23.80;59.60
46139;DHT22;32398;49.112;8.598;2022-08-19T00:53:26;23.80;59.60
46139;DHT22;32398;49.112;8.598;2022-08-19T00:55:55;23.80;59.70
46139;DHT22;32398;49.112;8.598;2022-08-19T00:58:24;23.80;59.70
46139;DHT22;32398;49.112;8.598;2022-08-19T01:00:53;23.80;59.70
46139;DHT22;32398;49.112;8.598;2022-08-19T01:03:21;23.70;59.70
46139;DHT22;32398;49.112;8.598;2022-08-19T01:05:48;23.80;59.80
46139;DHT22;32398;49.112;8.598;2022-08-19T01:08:16;23.80;59.80
46139;DHT22;32398;49.112;8.598;2022-08-19T01:10:44;23.80;59.90
46139;DHT22;32398;49.112;8.598;2022-08-19T01:13:13;23.70;59.90
46139;DHT22;32398;49.112;8.598;2022-08-19T01:15:40;23.70;60.00
46139;DHT22;32398;49.112;8.598;2022-08-19T01:18:10;23.70;59.90
46139;DHT22;32398;49.112;8.598;2022-08-19T01:20:37;23.70;60.00
46139;DHT22;32398;49.112;8.598;2022-08-19T01:23:06;23.70;60.10
46139;DHT22;32398;49.112;8.598;2022-08-19T01:25:34;23.70;60.10
46139;DHT22;32398;49.112;8.598;2022-08-19T01:28:02;23.70;60.10
46139;DHT22;32398;49.112;8.598;2022-08-19T01:30:30;23.70;60.00
46139;DHT22;32398;49.112;8.598;2022-08-19T01:32:57;23.60;60.10
46139;DHT22;32398;49.112;8.598;2022-08-19T01:35:26;23.60;60.20
46139;DHT22;32398;49.112;8.598;2022-08-19T01:37:55;23.60;60.30
46139;DHT22;32398;49.112;8.598;2022-08-19T01:40:24;23.60;60.40
46139;DHT22;32398;49.112;8.598;2022-08-19T01:42:51;23.60;60.20
46139;DHT22;32398;49.112;8.598;2022-08-19T01:45:19;23.60;60.30
46139;DHT22;32398;49.112;8.598;2022-08-19T01:47:47;23.50;60.30
46139;DHT22;32398;49.112;8.598;2022-08-19T01:50:14;23.60;60.40
46139;DHT22;32398;49.112;8.598;2022-08-19T01:52:41;23.50;60.30
46139;DHT22;32398;49.112;8.598;2022-08-19T01:55:09;23.50;60.30
46139;DHT22;32398;49.112;8.598;2022-08-19T01:57:38;23.50;60.30
46139;DHT22;32398;49.112;8.598;2022-08-19T02:00:06;23.50;60.40
46139;DHT22;32398;49.112;8.598;2022-08-19T02:02:33;23.50;60.50
46139;DHT22;32398;49.112;8.598;2022-08-19T02:05:00;23.50;60.50
46139;DHT22;32398;49.112;8.598;2022-08-19T02:07:26;23.50;60.60
46139;DHT22;32398;49.112;8.598;2022-08-19T02:09:53;23.50;60.60
46139;DHT22;32398;49.112;8.598;2022-08-19T02:12:20;23.40;60.70
46139;DHT22;32398;49.112;8.598;2022-08-19T02:14:48;23.40;60.70
46139;DHT22;32398;49.112;8.598;2022-08-19T02:17:15;23.40;60.80
46139;DHT22;32398;49.112;8.598;2022-08-19T02:19:41;23.40;61.60
46139;DHT22;32398;49.112;8.598;2022-08-19T02:22:08;23.40;60.90
46139;DHT22;32398;49.112;8.598;2022-08-19T02:24:34;23.40;61.00
46139;DHT22;32398;49.112;8.598;2022-08-19T02:27:01;23.40;61.10
46139;DHT22;32398;49.112;8.598;2022-08-19T02:29:28;23.40;61.10
46139;DHT22;32398;49.112;8.598;2022-08-19T02:31:55;23.30;61.10
46139;DHT22;32398;49.112;8.598;2022-08-19T02:34:22;23.40;61.20
46139;DHT22;32398;49.112;8.598;2022-08-19T02:36:50;23.30;61.20
46139;DHT22;32398;49.112;8.598;2022-08-19T02:39:17;23.30;61.30
46139;DHT22;32398;49.112;8.598;2022-08-19T02:41:42;23.30;61.20
46139;DHT22;32398;49.112;8.598;2022-08-19T02:44:09;23.30;61.20
46139;DHT22;32398;49.112;8.598;2022-08-19T02:46:36;23.30;61.40
46139;DHT22;32398;49.112;8.598;2022-08-19T02:49:05;23.30;61.50
46139;DHT22;32398;49.112;8.598;2022-08-19T02:51:32;23.20;61.40
46139;DHT22;32398;49.112;8.598;2022-08-19T02:53:59;23.20;61.60
46139;DHT22;32398;49.112;8.598;2022-08-19T02:56:26;23.20;61.30
46139;DHT22;32398;49.112;8.598;2022-08-19T02:58:53;23.20;62.50
46139;DHT22;32398;49.112;8.598;2022-08-19T03:01:21;23.10;62.70
46139;DHT22;32398;49.112;8.598;2022-08-19T03:03:48;23.10;62.30
46139;DHT22;32398;49.112;8.598;2022-08-19T03:06:16;23.10;62.00
46139;DHT22;32398;49.112;8.598;2022-08-19T03:08:44;23.00;62.00
46139;DHT22;32398;49.112;8.598;2022-08-19T03:11:14;23.00;61.90
46139;DHT22;32398;49.112;8.598;2022-08-19T03:13:42;23.00;61.90
46139;DHT22;32398;49.112;8.598;2022-08-19T03:16:09;23.00;62.00
46139;DHT22;32398;49.112;8.598;2022-08-19T03:18:36;23.00;62.00
46139;DHT22;32398;49.112;8.598;2022-08-19T03:21:02;23.00;61.90
46139;DHT22;32398;49.112;8.598;2022-08-19T03:23:31;23.00;62.10
46139;DHT22;32398;49.112;8.598;2022-08-19T03:25:57;23.00;62.10
46139;DHT22;32398;49.112;8.598;2022-08-19T03:28:24;23.00;62.10
46139;DHT22;32398;49.112;8.598;2022-08-19T03:30:54;23.00;62.10
46139;DHT22;32398;49.112;8.598;2022-08-19T03:33:22;23.00;62.20
46139;DHT22;32398;49.112;8.598;2022-08-19T03:35:58;23.00;62.20
46139;DHT22;32398;49.112;8.598;2022-08-19T03:38:25;23.00;62.20
46139;DHT22;32398;49.112;8.598;2022-08-19T03:40:53;22.90;62.20
46139;DHT22;32398;49.112;8.598;2022-08-19T03:43:19;22.90;62.20
46139;DHT22;32398;49.112;8.598;2022-08-19T03:45:46;22.90;62.30
46139;DHT22;32398;49.112;8.598;2022-08-19T03:48:14;22.90;62.40
46139;DHT22;32398;49.112;8.598;2022-08-19T03:50:41;22.90;62.30
46139;DHT22;32398;49.112;8.598;2022-08-19T03:53:08;22.90;62.30
46139;DHT22;32398;49.112;8.598;2022-08-19T03:55:38;22.90;62.40
46139;DHT22;32398;49.112;8.598;2022-08-19T03:58:06;22.90;62.40
46139;DHT22;32398;49.112;8.598;2022-08-19T04:00:32;22.80;62.40
46139;DHT22;32398;49.112;8.598;2022-08-19T04:02:59;22.90;62.50
46139;DHT22;32398;49.112;8.598;2022-08-19T04:05:26;22.80;63.40
46139;DHT22;32398;49.112;8.598;2022-08-19T04:07:53;22.80;62.60
46139;DHT22;32398;49.112;8.598;2022-08-19T04:10:20;22.80;62.60
46139;DHT22;32398;49.112;8.598;2022-08-19T04:12:46;22.80;62.80
46139;DHT22;32398;49.112;8.598;2022-08-19T04:15:14;22.80;62.70
46139;DHT22;32398;49.112;8.598;2022-08-19T04:17:41;22.80;62.80
46139;DHT22;32398;49.112;8.598;2022-08-19T04:20:08;22.70;62.80
46139;DHT22;32398;49.112;8.598;2022-08-19T04:22:35;22.70;62.90
46139;DHT22;32398;49.112;8.598;2022-08-19T04:25:01;22.70;63.00
46139;DHT22;32398;49.112;8.598;2022-08-19T04:27:28;22.70;63.00
46139;DHT22;32398;49.112;8.598;2022-08-19T04:29:56;22.70;63.10
46139;DHT22;32398;49.112;8.598;2022-08-19T04:32:24;22.70;63.10
46139;DHT22;32398;49.112;8.598;2022-08-19T04:34:51;22.60;63.10
46139;DHT22;32398;49.112;8.598;2022-08-19T04:37:17;22.70;63.20
46139;DHT22;32398;49.112;8.598;2022-08-19T04:39:44;22.70;63.30
46139;DHT22;32398;49.112;8.598;2022-08-19T04:42:28;22.70;63.30
46139;DHT22;32398;49.112;8.598;2022-08-19T04:45:07;22.70;63.40
46139;DHT22;32398;49.112;8.598;2022-08-19T04:47:37;22.60;63.50
46139;DHT22;32398;49.112;8.598;2022-08-19T04:50:05;22.60;63.40
46139;DHT22;32398;49.112;8.598;2022-08-19T04:52:31;22.50;63.50
46139;DHT22;32398;49.112;8.598;2022-08-19T04:54:58;22.60;63.50
46139;DHT22;32398;49.112;8.598;2022-08-19T04:57:24;22.60;63.50
46139;DHT22;32398;49.112;8.598;2022-08-19T04:59:53;22.60;63.50
46139;DHT22;32398;49.112;8.598;2022-08-19T05:02:19;22.50;63.50
46139;DHT22;32398;49.112;8.598;2022-08-19T05:04:49;22.50;63.50
46139;DHT22;32398;49.112;8.598;2022-08-19T05:07:16;22.50;63.60
46139;DHT22;32398;49.112;8.598;2022-08-19T05:09:42;22.50;63.70
46139;DHT22;32398;49.112;8.598;2022-08-19T05:12:09;22.50;63.60
46139;DHT22;32398;49.112;8.598;2022-08-19T05:14:36;22.50;63.60
46139;DHT22;32398;49.112;8.598;2022-08-19T05:17:02;22.50;64.40
46139;DHT22;32398;49.112;8.598;2022-08-19T05:19:29;22.50;63.60
46139;DHT22;32398;49.112;8.598;2022-08-19T05:22:15;22.50;63.70
46139;DHT22;32398;49.112;8.598;2022-08-19T05:25:02;22.50;63.70
46139;DHT22;32398;49.112;8.598;2022-08-19T05:27:29;22.50;63.70
46139;DHT22;32398;49.112;8.598;2022-08-19T05:29:56;22.50;63.70
46139;DHT22;32398;49.112;8.598;2022-08-19T05:32:22;22.50;63.80
46139;DHT22;32398;49.112;8.598;2022-08-19T05:34:49;22.50;64.00
46139;DHT22;32398;49.112;8.598;2022-08-19T05:37:17;22.40;63.90
46139;DHT22;32398;49.112;8.598;2022-08-19T05:39:44;22.40;63.90
46139;DHT22;32398;49.112;8.598;2022-08-19T05:42:10;22.40;63.90
46139;DHT22;32398;49.112;8.598;2022-08-19T05:44:39;22.40;64.00
46139;DHT22;32398;49.112;8.598;2022-08-19T05:47:09;22.40;64.00
46139;DHT22;32398;49.112;8.598;2022-08-19T05:49:36;22.40;64.00
46139;DHT22;32398;49.112;8.598;2022-08-19T05:52:03;22.40;64.10
46139;DHT22;32398;49.112;8.598;2022-08-19T05:54:32;22.40;64.20
46139;DHT22;32398;49.112;8.598;2022-08-19T05:57:00;22.40;64.20
46139;DHT22;32398;49.112;8.598;2022-08-19T05:59:26;22.40;64.20
46139;DHT22;32398;49.112;8.598;2022-08-19T06:01:53;22.40;64.30
46139;DHT22;32398;49.112;8.598;2022-08-19T06:04:22;22.40;64.30
46139;DHT22;32398;49.112;8.598;2022-08-19T06:06:50;22.50;64.40
46139;DHT22;32398;49.112;8.598;2022-08-19T06:09:17;22.40;64.40
46139;DHT22;32398;49.112;8.598;2022-08-19T06:11:46;22.40;64.40
46139;DHT22;32398;49.112;8.598;2022-08-19T06:14:14;22.40;64.30
46139;DHT22;32398;49.112;8.598;2022-08-19T06:16:41;22.40;64.40
46139;DHT22;32398;49.112;8.598;2022-08-19T06:19:11;22.30;64.30
46139;DHT22;32398;49.112;8.598;2022-08-19T06:21:38;22.30;64.50
46139;DHT22;32398;49.112;8.598;2022-08-19T06:24:05;22.40;64.40
46139;DHT22;32398;49.112;8.598;2022-08-19T06:26:33;22.30;64.40
46139;DHT22;32398;49.112;8.598;2022-08-19T06:29:01;22.30;64.40
46139;DHT22;32398;49.112;8.598;2022-08-19T06:31:28;22.30;64.30
46139;DHT22;32398;49.112;8.598;2022-08-19T06:33:58;22.30;64.30
46139;DHT22;32398;49.112;8.598;2022-08-19T06:36:26;22.30;64.30
46139;DHT22;32398;49.112;8.598;2022-08-19T06:38:57;22.30;64.40
46139;DHT22;32398;49.112;8.598;2022-08-19T06:41:23;22.30;64.40
46139;DHT22;32398;49.112;8.598;2022-08-19T06:43:50;22.30;64.40
46139;DHT22;32398;49.112;8.598;2022-08-19T06:46:18;22.30;64.40
46139;DHT22;32398;49.112;8.598;2022-08-19T06:48:44;22.30;64.40
46139;DHT22;32398;49.112;8.598;2022-08-19T06:51:11;22.30;64.30
46139;DHT22;32398;49.112;8.598;2022-08-19T06:53:40;22.30;64.30
46139;DHT22;32398;49.112;8.598;2022-08-19T06:56:12;22.30;64.30
46139;DHT22;32398;49.112;8.598;2022-08-19T06:58:39;22.30;64.30
46139;DHT22;32398;49.112;8.598;2022-08-19T07:01:05;22.40;64.40
46139;DHT22;32398;49.112;8.598;2022-08-19T07:03:34;22.30;64.40
46139;DHT22;32398;49.112;8.598;2022-08-19T07:06:02;22.30;64.40
46139;DHT22;32398;49.112;8.598;2022-08-19T07:08:29;22.40;64.50
46139;DHT22;32398;49.112;8.598;2022-08-19T07:10:56;22.40;64.40
46139;DHT22;32398;49.112;8.598;2022-08-19T07:13:23;22.40;64.40
46139;DHT22;32398;49.112;8.598;2022-08-19T07:15:50;22.40;64.50
46139;DHT22;32398;49.112;8.598;2022-08-19T07:18:17;22.40;64.50
46139;DHT22;32398;49.112;8.598;2022-08-19T07:20:45;22.40;64.60
46139;DHT22;32398;49.112;8.598;2022-08-19T07:23:11;22.40;64.60
46139;DHT22;32398;49.112;8.598;2022-08-19T07:25:38;22.40;64.60
46139;DHT22;32398;49.112;8.598;2022-08-19T07:28:05;22.50;64.60
46139;DHT22;32398;49.112;8.598;2022-08-19T07:30:35;22.40;64.50
46139;DHT22;32398;49.112;8.598;2022-08-19T07:33:02;22.50;64.50
46139;DHT22;32398;49.112;8.598;2022-08-19T07:35:29;22.50;64.40
46139;DHT22;32398;49.112;8.598;2022-08-19T07:37:58;22.50;64.50
46139;DHT22;32398;49.112;8.598;2022-08-19T07:40:28;22.50;64.40
46139;DHT22;32398;49.112;8.598;2022-08-19T07:42:55;22.50;64.30
46139;DHT22;32398;49.112;8.598;2022-08-19T07:45:21;22.50;64.30
46139;DHT22;32398;49.112;8.598;2022-08-19T07:47:48;22.60;64.40
46139;DHT22;32398;49.112;8.598;2022-08-19T07:50:15;22.60;64.30
46139;DHT22;32398;49.112;8.598;2022-08-19T07:52:43;22.60;64.10
46139;DHT22;32398;49.112;8.598;2022-08-19T07:55:11;22.60;64.10
46139;DHT22;32398;49.112;8.598;2022-08-19T07:57:37;22.60;64.00
46139;DHT22;32398;49.112;8.598;2022-08-19T08:00:05;22.60;63.90
46139;DHT22;32398;49.112;8.598;2022-08-19T08:02:32;22.60;63.90
46139;DHT22;32398;49.112;8.598;2022-08-19T08:04:58;22.60;63.80
46139;DHT22;32398;49.112;8.598;2022-08-19T08:07:43;22.70;63.80
46139;DHT22;32398;49.112;8.598;2022-08-19T08:10:28;22.70;63.60
46139;DHT22;32398;49.112;8.598;2022-08-19T08:12:55;22.70;63.50
46139;DHT22;32398;49.112;8.598;2022-08-19T08:15:21;22.80;63.60
46139;DHT22;32398;49.112;8.598;2022-08-19T08:17:48;22.70;63.50
46139;DHT22;32398;49.112;8.598;2022-08-19T08:20:15;22.70;63.40
46139;DHT22;32398;49.112;8.598;2022-08-19T08:22:42;22.80;63.40
46139;DHT22;32398;49.112;8.598;2022-08-19T08:25:28;22.80;63.40
46139;DHT22;32398;49.112;8.598;2022-08-19T08:27:56;22.80;63.30
46139;DHT22;32398;49.112;8.598;2022-08-19T08:30:25;22.80;63.30
46139;DHT22;32398;49.112;8.598;2022-08-19T08:32:53;22.80;63.30
46139;DHT22;32398;49.112;8.598;2022-08-19T08:35:20;22.80;63.30
46139;DHT22;32398;49.112;8.598;2022-08-19T08:37:48;22.90;63.50
46139;DHT22;32398;49.112;8.598;2022-08-19T08:40:16;22.90;63.40
46139;DHT22;32398;49.112;8.598;2022-08-19T08:42:47;22.90;63.30
46139;DHT22;32398;49.112;8.598;2022-08-19T08:45:16;22.90;63.20
46139;DHT22;32398;49.112;8.598;2022-08-19T08:47:44;22.90;63.30
46139;DHT22;32398;49.112;8.598;2022-08-19T08:50:14;23.00;63.10
46139;DHT22;32398;49.112;8.598;2022-08-19T08:52:43;23.00;63.00
46139;DHT22;32398;49.112;8.598;2022-08-19T08:55:11;23.10;63.00
46139;DHT22;32398;49.112;8.598;2022-08-19T08:57:39;23.10;62.90
46139;DHT22;32398;49.112;8.598;2022-08-19T09:00:10;23.10;62.60
46139;DHT22;32398;49.112;8.598;2022-08-19T09:02:38;23.20;62.70
46139;DHT22;32398;49.112;8.598;2022-08-19T09:05:05;23.20;62.50
46139;DHT22;32398;49.112;8.598;2022-08-19T09:07:35;23.20;62.40
46139;DHT22;32398;49.112;8.598;2022-08-19T09:10:07;23.30;62.50
46139;DHT22;32398;49.112;8.598;2022-08-19T09:12:38;23.30;62.30
46139;DHT22;32398;49.112;8.598;2022-08-19T09:15:09;23.30;62.10
46139;DHT22;32398;49.112;8.598;2022-08-19T09:17:36;23.40;62.00
46139;DHT22;32398;49.112;8.598;2022-08-19T09:20:05;23.40;61.60
46139;DHT22;32398;49.112;8.598;2022-08-19T09:22:33;23.50;61.40
46139;DHT22;32398;49.112;8.598;2022-08-19T09:25:00;23.50;61.20
46139;DHT22;32398;49.112;8.598;2022-08-19T09:27:27;23.50;61.10
46139;DHT22;32398;49.112;8.598;2022-08-19T09:29:54;23.60;60.90
46139;DHT22;32398;49.112;8.598;2022-08-19T09:32:22;23.60;60.90
46139;DHT22;32398;49.112;8.598;2022-08-19T09:34:49;23.70;60.80
46139;DHT22;32398;49.112;8.598;2022-08-19T09:37:18;23.70;60.40
46139;DHT22;32398;49.112;8.598;2022-08-19T09:39:44;23.70;60.40
46139;DHT22;32398;49.112;8.598;2022-08-19T09:42:11;23.80;60.10
46139;DHT22;32398;49.112;8.598;2022-08-19T09:44:38;23.80;59.90
46139;DHT22;32398;49.112;8.598;2022-08-19T09:47:05;23.90;59.90
46139;DHT22;32398;49.112;8.598;2022-08-19T09:49:33;24.00;60.10
46139;DHT22;32398;49.112;8.598;2022-08-19T09:52:00;24.00;59.70
46139;DHT22;32398;49.112;8.598;2022-08-19T09:54:26;24.10;59.50
46139;DHT22;32398;49.112;8.598;2022-08-19T09:56:54;24.10;59.30
46139;DHT22;32398;49.112;8.598;2022-08-19T09:59:21;24.20;59.00
46139;DHT22;32398;49.112;8.598;2022-08-19T10:01:47;24.30;59.10
46139;DHT22;32398;49.112;8.598;2022-08-19T10:04:14;24.30;58.80
46139;DHT22;32398;49.112;8.598;2022-08-19T10:06:42;24.30;58.70
46139;DHT22;32398;49.112;8.598;2022-08-19T10:09:10;24.40;58.30
46139;DHT22;32398;49.112;8.598;2022-08-19T10:11:38;24.50;58.50
46139;DHT22;32398;49.112;8.598;2022-08-19T10:14:05;24.50;58.50
46139;DHT22;32398;49.112;8.598;2022-08-19T10:16:33;24.60;58.30
46139;DHT22;32398;49.112;8.598;2022-08-19T10:19:00;24.70;58.00
46139;DHT22;32398;49.112;8.598;2022-08-19T10:21:28;24.70;58.10
46139;DHT22;32398;49.112;8.598;2022-08-19T10:23:56;24.80;58.00
46139;DHT22;32398;49.112;8.598;2022-08-19T10:26:24;24.80;57.50
46139;DHT22;32398;49.112;8.598;2022-08-19T10:28:51;24.80;57.50
46139;DHT22;32398;49.112;8.598;2022-08-19T10:31:18;24.90;57.40
46139;DHT22;32398;49.112;8.598;2022-08-19T10:33:46;25.00;57.00
46139;DHT22;32398;49.112;8.598;2022-08-19T10:36:14;25.00;56.60
46139;DHT22;32398;49.112;8.598;2022-08-19T10:38:43;25.10;57.10
46139;DHT22;32398;49.112;8.598;2022-08-19T10:41:13;25.20;57.40
46139;DHT22;32398;49.112;8.598;2022-08-19T10:43:40;25.20;57.60
46139;DHT22;32398;49.112;8.598;2022-08-19T10:46:06;25.30;57.20
46139;DHT22;32398;49.112;8.598;2022-08-19T10:48:33;25.30;57.50
46139;DHT22;32398;49.112;8.598;2022-08-19T10:51:00;25.30;56.70
46139;DHT22;32398;49.112;8.598;2022-08-19T10:53:44;25.30;56.70
46139;DHT22;32398;49.112;8.598;2022-08-19T10:56:12;25.40;56.30
46139;DHT22;32398;49.112;8.598;2022-08-19T10:58:58;25.40;55.90
46139;DHT22;32398;49.112;8.598;2022-08-19T11:01:25;25.50;56.90
46139;DHT22;32398;49.112;8.598;2022-08-19T11:03:52;25.60;56.10
46139;DHT22;32398;49.112;8.598;2022-08-19T11:06:18;25.60;55.80
46139;DHT22;32398;49.112;8.598;2022-08-19T11:08:45;25.60;56.00
46139;DHT22;32398;49.112;8.598;2022-08-19T11:11:13;25.70;55.70
46139;DHT22;32398;49.112;8.598;2022-08-19T11:13:40;25.70;55.90
46139;DHT22;32398;49.112;8.598;2022-08-19T11:16:09;25.70;56.20
46139;DHT22;32398;49.112;8.598;2022-08-19T11:18:36;25.80;56.60
46139;DHT22;32398;49.112;8.598;2022-08-19T11:21:10;25.80;56.50
46139;DHT22;32398;49.112;8.598;2022-08-19T11:23:37;25.80;56.30
46139;DHT22;32398;49.112;8.598;2022-08-19T11:26:04;25.90;55.60
46139;DHT22;32398;49.112;8.598;2022-08-19T11:28:32;25.90;55.70
46139;DHT22;32398;49.112;8.598;2022-08-19T11:30:58;25.90;56.30
46139;DHT22;32398;49.112;8.598;2022-08-19T11:33:25;25.90;55.50
46139;DHT22;32398;49.112;8.598;2022-08-19T11:35:52;26.00;55.40
46139;DHT22;32398;49.112;8.598;2022-08-19T11:38:19;26.00;55.30
46139;DHT22;32398;49.112;8.598;2022-08-19T11:40:53;26.10;54.90
46139;DHT22;32398;49.112;8.598;2022-08-19T11:43:19;26.10;54.50
46139;DHT22;32398;49.112;8.598;2022-08-19T11:45:47;26.20;54.40
46139;DHT22;32398;49.112;8.598;2022-08-19T11:48:14;26.30;54.50
46139;DHT22;32398;49.112;8.598;2022-08-19T11:50:41;26.30;55.10
46139;DHT22;32398;49.112;8.598;2022-08-19T11:53:08;26.40;53.80
46139;DHT22;32398;49.112;8.598;2022-08-19T11:55:36;26.50;53.70
46139;DHT22;32398;49.112;8.598;2022-08-19T11:58:04;26.50;53.70
46139;DHT22;32398;49.112;8.598;2022-08-19T12:00:31;26.60;53.50
46139;DHT22;32398;49.112;8.598;2022-08-19T12:03:00;26.60;53.50
46139;DHT22;32398;49.112;8.598;2022-08-19T12:05:27;26.70;53.30
46139;DHT22;32398;49.112;8.598;2022-08-19T12:07:53;26.70;52.90
46139;DHT22;32398;49.112;8.598;2022-08-19T12:10:21;26.80;53.10
46139;DHT22;32398;49.112;8.598;2022-08-19T12:12:48;26.80;52.90
46139;DHT22;32398;49.112;8.598;2022-08-19T12:15:15;26.90;53.50
46139;DHT22;32398;49.112;8.598;2022-08-19T12:17:42;26.90;53.00
46139;DHT22;32398;49.112;8.598;2022-08-19T12:20:10;26.90;52.70
46139;DHT22;32398;49.112;8.598;2022-08-19T12:22:38;27.00;52.40
46139;DHT22;32398;49.112;8.598;2022-08-19T12:25:06;26.90;52.20
46139;DHT22;32398;49.112;8.598;2022-08-19T12:27:33;27.00;52.30
46139;DHT22;32398;49.112;8.598;2022-08-19T12:30:00;27.00;51.00
46139;DHT22;32398;49.112;8.598;2022-08-19T12:32:27;27.00;51.30
46139;DHT22;32398;49.112;8.598;2022-08-19T12:34:54;27.00;51.30
46139;DHT22;32398;49.112;8.598;2022-08-19T12:37:21;27.10;52.30
46139;DHT22;32398;49.112;8.598;2022-08-19T12:39:48;27.10;52.20
46139;DHT22;32398;49.112;8.598;2022-08-19T12:42:15;27.10;52.10
46139;DHT22;32398;49.112;8.598;2022-08-19T12:44:42;27.10;51.30
46139;DHT22;32398;49.112;8.598;2022-08-19T12:47:10;27.20;51.50
46139;DHT22;32398;49.112;8.598;2022-08-19T12:49:37;27.20;51.60
46139;DHT22;32398;49.112;8.598;2022-08-19T12:52:05;27.20;51.20
46139;DHT22;32398;49.112;8.598;2022-08-19T12:54:34;27.20;51.00
46139;DHT22;32398;49.112;8.598;2022-08-19T12:57:04;27.30;51.20
46139;DHT22;32398;49.112;8.598;2022-08-19T12:59:30;27.30;51.20
46139;DHT22;32398;49.112;8.598;2022-08-19T13:01:57;27.30;50.20
46139;DHT22;32398;49.112;8.598;2022-08-19T13:04:23;27.30;49.70
46139;DHT22;32398;49.112;8.598;2022-08-19T13:06:50;27.40;50.50
46139;DHT22;32398;49.112;8.598;2022-08-19T13:09:17;27.80;44.70
46139;DHT22;32398;49.112;8.598;2022-08-19T13:11:44;28.30;42.20
46139;DHT22;32398;49.112;8.598;2022-08-19T13:48:10;30.90;35.20
46139;DHT22;32398;49.112;8.598;2022-08-19T13:53:32;30.90;35.30
46139;DHT22;32398;49.112;8.598;2022-08-19T13:55:58;31.00;36.40
46139;DHT22;32398;49.112;8.598;2022-08-19T13:58:25;31.00;35.30
46139;DHT22;32398;49.112;8.598;2022-08-19T14:00:52;30.90;35.40
46139;DHT22;32398;49.112;8.598;2022-08-19T14:03:18;30.90;35.60
46139;DHT22;32398;49.112;8.598;2022-08-19T14:05:45;31.00;35.70
46139;DHT22;32398;49.112;8.598;2022-08-19T14:08:12;31.20;35.80
46139;DHT22;32398;49.112;8.598;2022-08-19T14:10:40;31.40;34.70
46139;DHT22;32398;49.112;8.598;2022-08-19T14:13:10;31.50;35.00
46139;DHT22;32398;49.112;8.598;2022-08-19T14:15:36;31.60;34.60
46139;DHT22;32398;49.112;8.598;2022-08-19T14:18:03;31.60;33.70
46139;DHT22;32398;49.112;8.598;2022-08-19T14:20:30;31.60;33.40
46139;DHT22;32398;49.112;8.598;2022-08-19T14:22:56;31.60;33.80
46139;DHT22;32398;49.112;8.598;2022-08-19T14:25:25;31.60;34.30
46139;DHT22;32398;49.112;8.598;2022-08-19T14:27:53;31.80;33.20
46139;DHT22;32398;49.112;8.598;2022-08-19T14:30:21;31.70;33.00
46139;DHT22;32398;49.112;8.598;2022-08-19T14:32:50;31.70;33.20
46139;DHT22;32398;49.112;8.598;2022-08-19T14:35:16;31.70;32.90
46139;DHT22;32398;49.112;8.598;2022-08-19T14:37:43;31.50;34.50
46139;DHT22;32398;49.112;8.598;2022-08-19T14:40:11;31.40;36.80
46139;DHT22;32398;49.112;8.598;2022-08-19T14:42:38;31.20;38.20
46139;DHT22;32398;49.112;8.598;2022-08-19T14:45:06;31.00;39.60
46139;DHT22;32398;49.112;8.598;2022-08-19T14:47:33;30.90;40.40
46139;DHT22;32398;49.112;8.598;2022-08-19T14:50:00;30.80;41.70
46139;DHT22;32398;49.112;8.598;2022-08-19T14:52:26;30.70;41.00
46139;DHT22;32398;49.112;8.598;2022-08-19T14:54:53;30.60;41.80
46139;DHT22;32398;49.112;8.598;2022-08-19T14:57:19;30.60;42.60
46139;DHT22;32398;49.112;8.598;2022-08-19T14:59:46;30.60;42.00
46139;DHT22;32398;49.112;8.598;2022-08-19T15:02:14;30.60;42.30
46139;DHT22;32398;49.112;8.598;2022-08-19T15:04:40;30.50;43.30
46139;DHT22;32398;49.112;8.598;2022-08-19T15:07:07;30.50;43.00
46139;DHT22;32398;49.112;8.598;2022-08-19T15:09:34;30.50;43.20
46139;DHT22;32398;49.112;8.598;2022-08-19T15:12:01;30.50;43.30
46139;DHT22;32398;49.112;8.598;2022-08-19T15:14:28;30.50;42.20
46139;DHT22;32398;49.112;8.598;2022-08-19T15:16:57;30.50;42.50
46139;DHT22;32398;49.112;8.598;2022-08-19T15:19:25;30.50;43.10
46139;DHT22;32398;49.112;8.598;2022-08-19T15:21:52;30.50;43.20
46139;DHT22;32398;49.112;8.598;2022-08-19T15:24:19;30.50;43.70
46139;DHT22;32398;49.112;8.598;2022-08-19T15:26:46;30.50;42.60
46139;DHT22;32398;49.112;8.598;2022-08-19T15:29:13;30.50;43.60
46139;DHT22;32398;49.112;8.598;2022-08-19T15:31:41;30.40;43.70
46139;DHT22;32398;49.112;8.598;2022-08-19T15:34:08;30.40;44.20
46139;DHT22;32398;49.112;8.598;2022-08-19T15:36:36;30.40;43.90
46139;DHT22;32398;49.112;8.598;2022-08-19T15:39:03;30.40;43.50
46139;DHT22;32398;49.112;8.598;2022-08-19T15:41:30;30.50;43.90
46139;DHT22;32398;49.112;8.598;2022-08-19T15:43:58;30.40;43.90
46139;DHT22;32398;49.112;8.598;2022-08-19T15:46:26;30.40;44.40
46139;DHT22;32398;49.112;8.598;2022-08-19T15:48:53;30.40;44.50
46139;DHT22;32398;49.112;8.598;2022-08-19T15:51:21;30.30;44.50
46139;DHT22;32398;49.112;8.598;2022-08-19T15:53:49;30.40;44.30
46139;DHT22;32398;49.112;8.598;2022-08-19T15:56:16;30.30;43.90
46139;DHT22;32398;49.112;8.598;2022-08-19T15:58:42;30.30;44.50
46139;DHT22;32398;49.112;8.598;2022-08-19T16:01:27;30.30;44.60
46139;DHT22;32398;49.112;8.598;2022-08-19T16:04:11;30.30;44.50
46139;DHT22;32398;49.112;8.598;2022-08-19T16:06:55;30.30;45.00
46139;DHT22;32398;49.112;8.598;2022-08-19T16:09:25;30.30;44.70
46139;DHT22;32398;49.112;8.598;2022-08-19T16:11:53;30.30;44.80